sensor_id;sensor_type;location;lat;lon;timestamp;temperature;humidity
7902;DHT22;3996;49.674;10.716;2023-12-04T00:01:45;-4.70;35.50
7902;DHT22;3996;49.674;10.716;2023-12-04T00:04:11;-4.70;36.00
7902;DHT22;3996;49.674;10.716;2023-12-04T00:06:37;-4.70;36.40
7902;DHT22;3996;49.674;10.716;2023-12-04T00:09:02;-4.70;36.60
7902;DHT22;3996;49.674;10.716;2023-12-04T00:11:28;-4.60;36.50
7902;DHT22;3996;49.674;10.716;2023-12-04T00:13:53;-4.60;36.80
7902;DHT22;3996;49.674;10.716;2023-12-04T00:16:18;-4.60;35.80
7902;DHT22;3996;49.674;10.716;2023-12-04T00:18:44;-4.60;36.10
7902;DHT22;3996;49.674;10.716;2023-12-04T00:21:09;-4.60;36.00
7902;DHT22;3996;49.674;10.716;2023-12-04T00:23:35;-4.60;35.50
7902;DHT22;3996;49.674;10.716;2023-12-04T00:26:00;-4.70;37.20
7902;DHT22;3996;49.674;10.716;2023-12-04T00:28:26;-4.70;37.00
7902;DHT22;3996;49.674;10.716;2023-12-04T00:30:54;-4.70;37.40
7902;DHT22;3996;49.674;10.716;2023-12-04T00:33:19;-4.80;37.30
7902;DHT22;3996;49.674;10.716;2023-12-04T00:35:45;-4.80;37.30
7902;DHT22;3996;49.674;10.716;2023-12-04T00:38:10;-4.70;37.30
7902;DHT22;3996;49.674;10.716;2023-12-04T00:40:36;-4.70;37.10
7902;DHT22;3996;49.674;10.716;2023-12-04T00:43:01;-4.70;37.40
7902;DHT22;3996;49.674;10.716;2023-12-04T00:45:27;-4.70;37.10
7902;DHT22;3996;49.674;10.716;2023-12-04T00:47:52;-4.60;36.40
7902;DHT22;3996;49.674;10.716;2023-12-04T00:50:18;-4.60;36.40
7902;DHT22;3996;49.674;10.716;2023-12-04T00:52:43;-4.50;36.40
7902;DHT22;3996;49.674;10.716;2023-12-04T00:55:08;-4.50;35.10
7902;DHT22;3996;49.674;10.716;2023-12-04T00:57:34;-4.50;34.80
7902;DHT22;3996;49.674;10.716;2023-12-04T00:59:59;-4.50;35.90
7902;DHT22;3996;49.674;10.716;2023-12-04T01:02:25;-4.60;36.20
7902;DHT22;3996;49.674;10.716;2023-12-04T01:04:50;-4.50;36.10
7902;DHT22;3996;49.674;10.716;2023-12-04T01:07:16;-4.60;36.10
7902;DHT22;3996;49.674;10.716;2023-12-04T01:09:41;-4.60;36.70
7902;DHT22;3996;49.674;10.716;2023-12-04T01:12:07;-4.60;36.40
7902;DHT22;3996;49.674;10.716;2023-12-04T01:14:32;-4.60;36.70
7902;DHT22;3996;49.674;10.716;2023-12-04T01:16:58;-4.60;37.50
7902;DHT22;3996;49.674;10.716;2023-12-04T01:19:23;-4.60;38.20
7902;DHT22;3996;49.674;10.716;2023-12-04T01:21:49;-4.50;37.40
7902;DHT22;3996;49.674;10.716;2023-12-04T01:24:14;-4.50;36.80
7902;DHT22;3996;49.674;10.716;2023-12-04T01:26:40;-4.50;37.10
7902;DHT22;3996;49.674;10.716;2023-12-04T01:29:06;-4.50;37.50
7902;DHT22;3996;49.674;10.716;2023-12-04T01:31:31;-4.50;37.30
7902;DHT22;3996;49.674;10.716;2023-12-04T01:33:57;-4.40;36.50
7902;DHT22;3996;49.674;10.716;2023-12-04T01:36:22;-4.40;36.60
7902;DHT22;3996;49.674;10.716;2023-12-04T01:38:48;-4.40;36.00
7902;DHT22;3996;49.674;10.716;2023-12-04T01:41:13;-4.40;36.60
7902;DHT22;3996;49.674;10.716;2023-12-04T01:43:39;-4.40;36.90
7902;DHT22;3996;49.674;10.716;2023-12-04T01:46:05;-4.50;36.80
7902;DHT22;3996;49.674;10.716;2023-12-04T01:48:31;-4.50;37.50
7902;DHT22;3996;49.674;10.716;2023-12-04T01:50:56;-4.50;37.40
7902;DHT22;3996;49.674;10.716;2023-12-04T01:53:23;-4.50;38.20
7902;DHT22;3996;49.674;10.716;2023-12-04T01:55:48;-4.50;37.10
7902;DHT22;3996;49.674;10.716;2023-12-04T01:58:14;-4.40;37.20
7902;DHT22;3996;49.674;10.716;2023-12-04T02:00:40;-4.40;36.90
7902;DHT22;3996;49.674;10.716;2023-12-04T02:03:05;-4.40;36.50
7902;DHT22;3996;49.674;10.716;2023-12-04T02:05:31;-4.40;36.00
7902;DHT22;3996;49.674;10.716;2023-12-04T02:07:57;-4.30;35.90
7902;DHT22;3996;49.674;10.716;2023-12-04T02:10:23;-4.40;35.60
7902;DHT22;3996;49.674;10.716;2023-12-04T02:12:49;-4.40;35.70
7902;DHT22;3996;49.674;10.716;2023-12-04T02:15:14;-4.40;36.10
7902;DHT22;3996;49.674;10.716;2023-12-04T02:17:41;-4.40;36.00
7902;DHT22;3996;49.674;10.716;2023-12-04T02:20:08;-4.50;35.60
7902;DHT22;3996;49.674;10.716;2023-12-04T02:22:34;-4.40;35.80
7902;DHT22;3996;49.674;10.716;2023-12-04T02:25:00;-4.50;36.00
7902;DHT22;3996;49.674;10.716;2023-12-04T02:27:26;-4.50;35.50
7902;DHT22;3996;49.674;10.716;2023-12-04T02:29:56;-4.50;35.80
7902;DHT22;3996;49.674;10.716;2023-12-04T02:32:22;-4.50;36.00
7902;DHT22;3996;49.674;10.716;2023-12-04T02:34:48;-4.50;35.70
7902;DHT22;3996;49.674;10.716;2023-12-04T02:37:14;-4.50;36.00
7902;DHT22;3996;49.674;10.716;2023-12-04T02:39:41;-4.40;35.40
7902;DHT22;3996;49.674;10.716;2023-12-04T02:42:07;-4.50;35.30
7902;DHT22;3996;49.674;10.716;2023-12-04T02:44:32;-4.50;35.50
7902;DHT22;3996;49.674;10.716;2023-12-04T02:46:58;-4.50;35.60
7902;DHT22;3996;49.674;10.716;2023-12-04T02:49:23;-4.50;35.50
7902;DHT22;3996;49.674;10.716;2023-12-04T02:51:49;-4.50;35.30
7902;DHT22;3996;49.674;10.716;2023-12-04T02:54:14;-4.50;35.00
7902;DHT22;3996;49.674;10.716;2023-12-04T02:56:40;-4.50;35.90
7902;DHT22;3996;49.674;10.716;2023-12-04T02:59:05;-4.50;36.00
7902;DHT22;3996;49.674;10.716;2023-12-04T03:01:31;-4.40;35.80
7902;DHT22;3996;49.674;10.716;2023-12-04T03:03:56;-4.50;35.50
7902;DHT22;3996;49.674;10.716;2023-12-04T03:06:22;-4.40;35.20
7902;DHT22;3996;49.674;10.716;2023-12-04T03:08:48;-4.50;34.60
7902;DHT22;3996;49.674;10.716;2023-12-04T03:11:13;-4.50;34.40
7902;DHT22;3996;49.674;10.716;2023-12-04T03:13:39;-4.60;34.40
7902;DHT22;3996;49.674;10.716;2023-12-04T03:16:04;-4.60;34.20
7902;DHT22;3996;49.674;10.716;2023-12-04T03:18:30;-4.60;34.00
7902;DHT22;3996;49.674;10.716;2023-12-04T03:20:55;-4.70;33.60
7902;DHT22;3996;49.674;10.716;2023-12-04T03:23:21;-4.70;33.30
7902;DHT22;3996;49.674;10.716;2023-12-04T03:25:46;-4.70;33.10
7902;DHT22;3996;49.674;10.716;2023-12-04T03:28:12;-4.60;33.00
7902;DHT22;3996;49.674;10.716;2023-12-04T03:30:38;-4.70;32.70
7902;DHT22;3996;49.674;10.716;2023-12-04T03:33:04;-4.60;32.90
7902;DHT22;3996;49.674;10.716;2023-12-04T03:35:29;-4.60;32.30
7902;DHT22;3996;49.674;10.716;2023-12-04T03:37:55;-4.70;31.80
7902;DHT22;3996;49.674;10.716;2023-12-04T03:40:20;-4.70;32.50
7902;DHT22;3996;49.674;10.716;2023-12-04T03:42:46;-4.70;32.60
7902;DHT22;3996;49.674;10.716;2023-12-04T03:45:11;-4.70;32.00
7902;DHT22;3996;49.674;10.716;2023-12-04T03:47:37;-4.70;32.60
7902;DHT22;3996;49.674;10.716;2023-12-04T03:50:02;-4.70;32.60
7902;DHT22;3996;49.674;10.716;2023-12-04T03:52:28;-4.70;32.60
7902;DHT22;3996;49.674;10.716;2023-12-04T03:54:53;-4.70;32.50
7902;DHT22;3996;49.674;10.716;2023-12-04T03:57:18;-4.70;32.60
7902;DHT22;3996;49.674;10.716;2023-12-04T03:59:44;-4.70;32.90
7902;DHT22;3996;49.674;10.716;2023-12-04T04:02:10;-4.70;32.30
7902;DHT22;3996;49.674;10.716;2023-12-04T04:04:35;-4.70;32.80
7902;DHT22;3996;49.674;10.716;2023-12-04T04:07:01;-4.70;32.40
7902;DHT22;3996;49.674;10.716;2023-12-04T04:09:26;-4.70;32.50
7902;DHT22;3996;49.674;10.716;2023-12-04T04:11:52;-4.60;32.60
7902;DHT22;3996;49.674;10.716;2023-12-04T04:14:17;-4.70;32.90
7902;DHT22;3996;49.674;10.716;2023-12-04T04:16:43;-4.70;33.10
7902;DHT22;3996;49.674;10.716;2023-12-04T04:19:08;-4.70;34.00
7902;DHT22;3996;49.674;10.716;2023-12-04T04:21:34;-4.70;34.30
7902;DHT22;3996;49.674;10.716;2023-12-04T04:23:59;-4.70;34.20
7902;DHT22;3996;49.674;10.716;2023-12-04T04:26:25;-4.70;33.70
7902;DHT22;3996;49.674;10.716;2023-12-04T04:28:50;-4.60;33.50
7902;DHT22;3996;49.674;10.716;2023-12-04T04:31:16;-4.60;33.70
7902;DHT22;3996;49.674;10.716;2023-12-04T04:33:41;-4.70;34.10
7902;DHT22;3996;49.674;10.716;2023-12-04T04:36:08;-4.60;34.00
7902;DHT22;3996;49.674;10.716;2023-12-04T04:38:34;-4.60;34.80
7902;DHT22;3996;49.674;10.716;2023-12-04T04:40:59;-4.50;33.60
7902;DHT22;3996;49.674;10.716;2023-12-04T04:43:25;-4.40;32.90
7902;DHT22;3996;49.674;10.716;2023-12-04T04:45:50;-4.60;33.80
7902;DHT22;3996;49.674;10.716;2023-12-04T04:48:16;-4.60;33.20
7902;DHT22;3996;49.674;10.716;2023-12-04T04:50:41;-4.60;32.60
7902;DHT22;3996;49.674;10.716;2023-12-04T04:53:07;-4.50;32.70
7902;DHT22;3996;49.674;10.716;2023-12-04T04:55:32;-4.50;32.60
7902;DHT22;3996;49.674;10.716;2023-12-04T04:57:58;-4.60;32.20
7902;DHT22;3996;49.674;10.716;2023-12-04T05:00:23;-4.50;32.40
7902;DHT22;3996;49.674;10.716;2023-12-04T05:02:49;-4.60;32.50
7902;DHT22;3996;49.674;10.716;2023-12-04T05:05:14;-4.50;32.70
7902;DHT22;3996;49.674;10.716;2023-12-04T05:07:40;-4.50;32.30
7902;DHT22;3996;49.674;10.716;2023-12-04T05:10:05;-4.60;32.20
7902;DHT22;3996;49.674;10.716;2023-12-04T05:12:31;-4.50;32.90
7902;DHT22;3996;49.674;10.716;2023-12-04T05:14:56;-4.50;33.20
7902;DHT22;3996;49.674;10.716;2023-12-04T05:17:22;-4.40;33.20
7902;DHT22;3996;49.674;10.716;2023-12-04T05:19:47;-4.40;32.90
7902;DHT22;3996;49.674;10.716;2023-12-04T05:22:13;-4.50;32.80
7902;DHT22;3996;49.674;10.716;2023-12-04T05:24:38;-4.50;33.20
7902;DHT22;3996;49.674;10.716;2023-12-04T05:27:04;-4.40;33.00
7902;DHT22;3996;49.674;10.716;2023-12-04T05:29:29;-4.30;33.20
7902;DHT22;3996;49.674;10.716;2023-12-04T05:31:54;-4.40;33.30
7902;DHT22;3996;49.674;10.716;2023-12-04T05:34:20;-4.40;33.30
7902;DHT22;3996;49.674;10.716;2023-12-04T05:36:45;-4.40;33.00
7902;DHT22;3996;49.674;10.716;2023-12-04T05:39:11;-4.40;33.30
7902;DHT22;3996;49.674;10.716;2023-12-04T05:41:37;-4.30;33.40
7902;DHT22;3996;49.674;10.716;2023-12-04T05:44:02;-4.40;33.80
7902;DHT22;3996;49.674;10.716;2023-12-04T05:46:28;-4.30;33.90
7902;DHT22;3996;49.674;10.716;2023-12-04T05:48:53;-4.30;33.70
7902;DHT22;3996;49.674;10.716;2023-12-04T05:51:19;-4.30;33.90
7902;DHT22;3996;49.674;10.716;2023-12-04T05:53:44;-4.30;33.70
7902;DHT22;3996;49.674;10.716;2023-12-04T05:56:10;-4.30;34.20
7902;DHT22;3996;49.674;10.716;2023-12-04T05:58:36;-4.30;34.10
7902;DHT22;3996;49.674;10.716;2023-12-04T06:01:01;-4.30;34.20
7902;DHT22;3996;49.674;10.716;2023-12-04T06:03:27;-4.20;34.00
7902;DHT22;3996;49.674;10.716;2023-12-04T06:05:53;-4.20;33.60
7902;DHT22;3996;49.674;10.716;2023-12-04T06:08:18;-4.20;34.00
7902;DHT22;3996;49.674;10.716;2023-12-04T06:10:44;-4.20;34.00
7902;DHT22;3996;49.674;10.716;2023-12-04T06:13:09;-4.30;34.20
7902;DHT22;3996;49.674;10.716;2023-12-04T06:15:35;-4.30;34.80
7902;DHT22;3996;49.674;10.716;2023-12-04T06:18:00;-4.20;34.60
7902;DHT22;3996;49.674;10.716;2023-12-04T06:20:26;-4.20;34.60
7902;DHT22;3996;49.674;10.716;2023-12-04T06:22:51;-4.30;34.30
7902;DHT22;3996;49.674;10.716;2023-12-04T06:25:17;-4.20;34.90
7902;DHT22;3996;49.674;10.716;2023-12-04T06:27:43;-4.20;35.00
7902;DHT22;3996;49.674;10.716;2023-12-04T06:30:09;-4.10;35.00
7902;DHT22;3996;49.674;10.716;2023-12-04T06:32:34;-4.10;34.60
7902;DHT22;3996;49.674;10.716;2023-12-04T06:35:00;-4.10;34.30
7902;DHT22;3996;49.674;10.716;2023-12-04T06:37:26;-4.00;37.20
7902;DHT22;3996;49.674;10.716;2023-12-04T06:39:52;-4.00;34.30
7902;DHT22;3996;49.674;10.716;2023-12-04T06:42:18;-4.00;34.00
7902;DHT22;3996;49.674;10.716;2023-12-04T06:44:43;-4.00;34.50
7902;DHT22;3996;49.674;10.716;2023-12-04T06:47:09;-3.90;33.80
7902;DHT22;3996;49.674;10.716;2023-12-04T06:49:37;-3.90;33.80
7902;DHT22;3996;49.674;10.716;2023-12-04T06:52:02;-4.00;32.90
7902;DHT22;3996;49.674;10.716;2023-12-04T06:54:28;-4.00;33.50
7902;DHT22;3996;49.674;10.716;2023-12-04T06:56:54;-4.10;33.60
7902;DHT22;3996;49.674;10.716;2023-12-04T06:59:19;-4.10;33.90
7902;DHT22;3996;49.674;10.716;2023-12-04T07:01:45;-4.10;33.60
7902;DHT22;3996;49.674;10.716;2023-12-04T07:04:11;-4.10;33.90
7902;DHT22;3996;49.674;10.716;2023-12-04T07:06:36;-4.00;34.20
7902;DHT22;3996;49.674;10.716;2023-12-04T07:09:02;-3.90;34.10
7902;DHT22;3996;49.674;10.716;2023-12-04T07:11:28;-3.90;33.60
7902;DHT22;3996;49.674;10.716;2023-12-04T07:13:54;-3.90;33.90
7902;DHT22;3996;49.674;10.716;2023-12-04T07:16:19;-3.80;33.80
7902;DHT22;3996;49.674;10.716;2023-12-04T07:18:45;-3.80;33.90
7902;DHT22;3996;49.674;10.716;2023-12-04T07:21:10;-3.80;33.80
7902;DHT22;3996;49.674;10.716;2023-12-04T07:23:36;-3.80;33.70
7902;DHT22;3996;49.674;10.716;2023-12-04T07:26:01;-3.80;34.00
7902;DHT22;3996;49.674;10.716;2023-12-04T07:28:27;-3.80;34.10
7902;DHT22;3996;49.674;10.716;2023-12-04T07:30:54;-3.70;34.00
7902;DHT22;3996;49.674;10.716;2023-12-04T07:33:19;-3.80;32.60
7902;DHT22;3996;49.674;10.716;2023-12-04T07:35:45;-3.80;32.20
7902;DHT22;3996;49.674;10.716;2023-12-04T07:38:10;-3.70;33.10
7902;DHT22;3996;49.674;10.716;2023-12-04T07:40:36;-3.60;33.10
7902;DHT22;3996;49.674;10.716;2023-12-04T07:43:01;-3.50;33.40
7902;DHT22;3996;49.674;10.716;2023-12-04T07:45:27;-3.50;33.50
7902;DHT22;3996;49.674;10.716;2023-12-04T07:47:53;-3.30;32.70
7902;DHT22;3996;49.674;10.716;2023-12-04T07:50:18;-3.10;32.10
7902;DHT22;3996;49.674;10.716;2023-12-04T07:52:44;-2.90;31.40
7902;DHT22;3996;49.674;10.716;2023-12-04T07:55:09;-2.60;30.00
7902;DHT22;3996;49.674;10.716;2023-12-04T07:57:35;-2.40;29.00
7902;DHT22;3996;49.674;10.716;2023-12-04T08:00:00;-2.20;28.40
7902;DHT22;3996;49.674;10.716;2023-12-04T08:02:26;-2.10;27.80
7902;DHT22;3996;49.674;10.716;2023-12-04T08:04:51;-2.00;27.60
7902;DHT22;3996;49.674;10.716;2023-12-04T08:07:17;-1.90;26.80
7902;DHT22;3996;49.674;10.716;2023-12-04T08:09:42;-2.00;27.00
7902;DHT22;3996;49.674;10.716;2023-12-04T08:12:08;-1.80;27.40
7902;DHT22;3996;49.674;10.716;2023-12-04T08:14:34;-1.70;26.70
7902;DHT22;3996;49.674;10.716;2023-12-04T08:16:59;-1.70;26.00
7902;DHT22;3996;49.674;10.716;2023-12-04T08:19:25;-1.80;25.90
7902;DHT22;3996;49.674;10.716;2023-12-04T08:21:50;-1.80;26.40
7902;DHT22;3996;49.674;10.716;2023-12-04T08:24:16;-1.80;26.90
7902;DHT22;3996;49.674;10.716;2023-12-04T08:26:44;-1.90;26.10
7902;DHT22;3996;49.674;10.716;2023-12-04T08:29:11;-2.10;26.70
7902;DHT22;3996;49.674;10.716;2023-12-04T08:31:36;-2.40;28.30
7902;DHT22;3996;49.674;10.716;2023-12-04T08:34:01;-2.40;28.40
7902;DHT22;3996;49.674;10.716;2023-12-04T08:36:27;-2.50;28.10
7902;DHT22;3996;49.674;10.716;2023-12-04T08:38:52;-2.60;29.10
7902;DHT22;3996;49.674;10.716;2023-12-04T08:41:18;-2.60;29.30
7902;DHT22;3996;49.674;10.716;2023-12-04T08:43:43;-2.60;29.80
7902;DHT22;3996;49.674;10.716;2023-12-04T08:46:13;-2.70;29.30
7902;DHT22;3996;49.674;10.716;2023-12-04T08:48:39;-2.70;30.00
7902;DHT22;3996;49.674;10.716;2023-12-04T08:51:05;-2.80;30.30
7902;DHT22;3996;49.674;10.716;2023-12-04T08:53:31;-2.70;30.40
7902;DHT22;3996;49.674;10.716;2023-12-04T08:55:56;-2.80;30.30
7902;DHT22;3996;49.674;10.716;2023-12-04T08:58:23;-2.80;30.80
7902;DHT22;3996;49.674;10.716;2023-12-04T09:00:48;-2.70;31.30
7902;DHT22;3996;49.674;10.716;2023-12-04T09:03:14;-2.60;30.70
7902;DHT22;3996;49.674;10.716;2023-12-04T09:05:39;-2.70;30.40
7902;DHT22;3996;49.674;10.716;2023-12-04T09:08:05;-2.90;30.80
7902;DHT22;3996;49.674;10.716;2023-12-04T09:10:30;-2.80;31.30
7902;DHT22;3996;49.674;10.716;2023-12-04T09:12:56;-2.70;31.00
7902;DHT22;3996;49.674;10.716;2023-12-04T09:15:21;-2.70;30.90
7902;DHT22;3996;49.674;10.716;2023-12-04T09:17:47;-2.70;31.40
7902;DHT22;3996;49.674;10.716;2023-12-04T09:20:12;-2.60;30.80
7902;DHT22;3996;49.674;10.716;2023-12-04T09:22:38;-2.60;30.50
7902;DHT22;3996;49.674;10.716;2023-12-04T09:25:05;-2.50;30.60
7902;DHT22;3996;49.674;10.716;2023-12-04T09:27:30;-2.50;30.60
7902;DHT22;3996;49.674;10.716;2023-12-04T09:29:56;-2.40;31.40
7902;DHT22;3996;49.674;10.716;2023-12-04T09:32:21;-2.30;30.80
7902;DHT22;3996;49.674;10.716;2023-12-04T09:34:47;-2.30;29.80
7902;DHT22;3996;49.674;10.716;2023-12-04T09:37:13;-2.20;30.00
7902;DHT22;3996;49.674;10.716;2023-12-04T09:39:39;-2.20;30.00
7902;DHT22;3996;49.674;10.716;2023-12-04T09:42:05;-2.10;30.90
7902;DHT22;3996;49.674;10.716;2023-12-04T09:44:30;-2.20;30.30
7902;DHT22;3996;49.674;10.716;2023-12-04T09:46:56;-2.10;31.20
7902;DHT22;3996;49.674;10.716;2023-12-04T09:49:21;-2.10;30.30
7902;DHT22;3996;49.674;10.716;2023-12-04T09:51:47;-2.10;30.40
7902;DHT22;3996;49.674;10.716;2023-12-04T09:54:13;-2.20;30.00
7902;DHT22;3996;49.674;10.716;2023-12-04T09:56:41;-2.20;30.00
7902;DHT22;3996;49.674;10.716;2023-12-04T09:59:07;-2.10;30.20
7902;DHT22;3996;49.674;10.716;2023-12-04T10:01:33;-2.10;30.10
7902;DHT22;3996;49.674;10.716;2023-12-04T10:04:00;-2.20;29.60
7902;DHT22;3996;49.674;10.716;2023-12-04T10:06:26;-2.30;29.80
7902;DHT22;3996;49.674;10.716;2023-12-04T10:08:53;-2.30;29.60
7902;DHT22;3996;49.674;10.716;2023-12-04T10:11:19;-2.30;28.80
7902;DHT22;3996;49.674;10.716;2023-12-04T10:13:44;-2.40;28.80
7902;DHT22;3996;49.674;10.716;2023-12-04T10:16:09;-2.40;28.80
7902;DHT22;3996;49.674;10.716;2023-12-04T10:18:35;-2.30;29.80
7902;DHT22;3996;49.674;10.716;2023-12-04T10:21:00;-2.30;29.60
7902;DHT22;3996;49.674;10.716;2023-12-04T10:23:40;-2.20;29.60
7902;DHT22;3996;49.674;10.716;2023-12-04T10:26:06;-2.30;29.70
7902;DHT22;3996;49.674;10.716;2023-12-04T10:28:33;-2.30;30.10
7902;DHT22;3996;49.674;10.716;2023-12-04T10:30:58;-2.30;29.80
7902;DHT22;3996;49.674;10.716;2023-12-04T10:33:24;-2.30;29.90
7902;DHT22;3996;49.674;10.716;2023-12-04T10:35:51;-2.30;29.90
7902;DHT22;3996;49.674;10.716;2023-12-04T10:38:16;-2.10;30.20
7902;DHT22;3996;49.674;10.716;2023-12-04T10:40:43;-2.00;31.30
7902;DHT22;3996;49.674;10.716;2023-12-04T10:45:34;-2.00;28.70
7902;DHT22;3996;49.674;10.716;2023-12-04T10:48:00;-2.00;28.80
7902;DHT22;3996;49.674;10.716;2023-12-04T10:50:25;-1.90;29.80
7902;DHT22;3996;49.674;10.716;2023-12-04T10:52:52;-1.80;29.40
7902;DHT22;3996;49.674;10.716;2023-12-04T10:55:19;-1.70;29.40
7902;DHT22;3996;49.674;10.716;2023-12-04T10:57:44;-1.60;29.20
7902;DHT22;3996;49.674;10.716;2023-12-04T11:00:12;-1.60;29.00
7902;DHT22;3996;49.674;10.716;2023-12-04T11:02:42;-1.60;28.50
7902;DHT22;3996;49.674;10.716;2023-12-04T11:05:13;-1.70;28.50
7902;DHT22;3996;49.674;10.716;2023-12-04T11:07:47;-1.70;28.70
7902;DHT22;3996;49.674;10.716;2023-12-04T11:10:13;-1.80;28.20
7902;DHT22;3996;49.674;10.716;2023-12-04T11:12:39;-1.70;28.60
7902;DHT22;3996;49.674;10.716;2023-12-04T11:15:09;-1.60;29.70
7902;DHT22;3996;49.674;10.716;2023-12-04T11:17:36;-1.50;29.10
7902;DHT22;3996;49.674;10.716;2023-12-04T11:20:13;-1.40;29.50
7902;DHT22;3996;49.674;10.716;2023-12-04T11:22:42;-1.40;29.30
7902;DHT22;3996;49.674;10.716;2023-12-04T11:25:08;-1.50;28.70
7902;DHT22;3996;49.674;10.716;2023-12-04T11:27:35;-1.50;28.90
7902;DHT22;3996;49.674;10.716;2023-12-04T11:30:01;-1.50;28.90
7902;DHT22;3996;49.674;10.716;2023-12-04T11:32:28;-1.60;28.70
7902;DHT22;3996;49.674;10.716;2023-12-04T11:34:55;-1.60;28.90
7902;DHT22;3996;49.674;10.716;2023-12-04T11:37:21;-1.60;28.50
7902;DHT22;3996;49.674;10.716;2023-12-04T11:39:51;-1.70;29.00
7902;DHT22;3996;49.674;10.716;2023-12-04T11:42:23;-1.60;29.50
7902;DHT22;3996;49.674;10.716;2023-12-04T11:44:49;-1.60;29.50
7902;DHT22;3996;49.674;10.716;2023-12-04T11:47:15;-1.60;29.20
7902;DHT22;3996;49.674;10.716;2023-12-04T11:49:40;-1.60;29.40
7902;DHT22;3996;49.674;10.716;2023-12-04T11:52:06;-1.50;29.40
7902;DHT22;3996;49.674;10.716;2023-12-04T11:59:41;-1.40;29.00
7902;DHT22;3996;49.674;10.716;2023-12-04T12:02:07;-1.30;28.80
7902;DHT22;3996;49.674;10.716;2023-12-04T12:04:33;-1.30;29.30
7902;DHT22;3996;49.674;10.716;2023-12-04T12:06:58;-1.30;29.40
7902;DHT22;3996;49.674;10.716;2023-12-04T12:09:27;-1.30;29.60
7902;DHT22;3996;49.674;10.716;2023-12-04T12:11:53;-1.20;29.20
7902;DHT22;3996;49.674;10.716;2023-12-04T12:14:20;-1.20;28.60
7902;DHT22;3996;49.674;10.716;2023-12-04T12:16:46;-1.10;27.70
7902;DHT22;3996;49.674;10.716;2023-12-04T12:19:11;-1.20;27.70
7902;DHT22;3996;49.674;10.716;2023-12-04T12:21:37;-1.20;28.40
7902;DHT22;3996;49.674;10.716;2023-12-04T12:24:03;-1.10;28.10
7902;DHT22;3996;49.674;10.716;2023-12-04T12:26:30;-1.10;28.10
7902;DHT22;3996;49.674;10.716;2023-12-04T12:28:56;-1.00;28.80
7902;DHT22;3996;49.674;10.716;2023-12-04T12:31:21;-1.00;28.50
7902;DHT22;3996;49.674;10.716;2023-12-04T12:33:46;-1.00;28.00
7902;DHT22;3996;49.674;10.716;2023-12-04T12:36:12;-1.00;27.70
7902;DHT22;3996;49.674;10.716;2023-12-04T12:38:38;-1.00;28.10
7902;DHT22;3996;49.674;10.716;2023-12-04T12:41:07;-0.90;27.60
7902;DHT22;3996;49.674;10.716;2023-12-04T12:43:33;-0.90;27.50
7902;DHT22;3996;49.674;10.716;2023-12-04T12:45:59;-1.00;27.30
7902;DHT22;3996;49.674;10.716;2023-12-04T12:48:26;-1.00;27.60
7902;DHT22;3996;49.674;10.716;2023-12-04T12:50:52;-0.90;27.40
7902;DHT22;3996;49.674;10.716;2023-12-04T12:53:17;-1.00;27.10
7902;DHT22;3996;49.674;10.716;2023-12-04T12:55:43;-1.10;27.00
7902;DHT22;3996;49.674;10.716;2023-12-04T12:58:12;-1.10;27.30
7902;DHT22;3996;49.674;10.716;2023-12-04T13:00:46;-1.10;27.50
7902;DHT22;3996;49.674;10.716;2023-12-04T13:03:18;-1.10;27.50
7902;DHT22;3996;49.674;10.716;2023-12-04T13:05:44;-1.10;27.50
7902;DHT22;3996;49.674;10.716;2023-12-04T13:08:10;-1.10;27.20
7902;DHT22;3996;49.674;10.716;2023-12-04T13:10:36;-1.10;27.40
7902;DHT22;3996;49.674;10.716;2023-12-04T13:13:02;-1.10;26.90
7902;DHT22;3996;49.674;10.716;2023-12-04T13:15:28;-1.10;27.80
7902;DHT22;3996;49.674;10.716;2023-12-04T13:17:53;-1.10;27.80
7902;DHT22;3996;49.674;10.716;2023-12-04T13:20:18;-1.10;27.50
7902;DHT22;3996;49.674;10.716;2023-12-04T13:22:44;-1.00;27.90
7902;DHT22;3996;49.674;10.716;2023-12-04T13:25:10;-1.00;27.80
7902;DHT22;3996;49.674;10.716;2023-12-04T13:27:38;-0.90;28.20
7902;DHT22;3996;49.674;10.716;2023-12-04T13:30:07;-0.90;27.80
7902;DHT22;3996;49.674;10.716;2023-12-04T13:32:36;-1.00;26.70
7902;DHT22;3996;49.674;10.716;2023-12-04T13:35:02;-1.10;26.60
7902;DHT22;3996;49.674;10.716;2023-12-04T13:37:32;-1.20;27.10
7902;DHT22;3996;49.674;10.716;2023-12-04T13:39:58;-1.20;27.00
7902;DHT22;3996;49.674;10.716;2023-12-04T13:42:28;-1.10;27.30
7902;DHT22;3996;49.674;10.716;2023-12-04T13:45:12;-1.20;26.70
7902;DHT22;3996;49.674;10.716;2023-12-04T13:47:38;-1.10;27.50
7902;DHT22;3996;49.674;10.716;2023-12-04T13:50:07;-1.10;27.50
7902;DHT22;3996;49.674;10.716;2023-12-04T13:52:35;-1.10;26.90
7902;DHT22;3996;49.674;10.716;2023-12-04T13:55:01;-1.10;27.10
7902;DHT22;3996;49.674;10.716;2023-12-04T13:57:33;-1.10;28.10
7902;DHT22;3996;49.674;10.716;2023-12-04T14:00:09;-1.10;27.30
7902;DHT22;3996;49.674;10.716;2023-12-04T14:02:34;-1.10;27.50
7902;DHT22;3996;49.674;10.716;2023-12-04T14:05:02;-1.10;27.60
7902;DHT22;3996;49.674;10.716;2023-12-04T14:07:28;-1.10;27.30
7902;DHT22;3996;49.674;10.716;2023-12-04T14:09:53;-1.10;27.30
7902;DHT22;3996;49.674;10.716;2023-12-04T14:12:19;-1.20;26.80
7902;DHT22;3996;49.674;10.716;2023-12-04T14:14:44;-1.10;27.80
7902;DHT22;3996;49.674;10.716;2023-12-04T14:17:10;-1.10;28.00
7902;DHT22;3996;49.674;10.716;2023-12-04T14:19:37;-1.10;27.10
7902;DHT22;3996;49.674;10.716;2023-12-04T14:22:04;-1.10;27.40
7902;DHT22;3996;49.674;10.716;2023-12-04T14:24:30;-1.20;28.00
7902;DHT22;3996;49.674;10.716;2023-12-04T14:26:56;-1.20;28.00
7902;DHT22;3996;49.674;10.716;2023-12-04T14:29:21;-1.20;28.00
7902;DHT22;3996;49.674;10.716;2023-12-04T14:31:47;-1.20;28.00
7902;DHT22;3996;49.674;10.716;2023-12-04T14:34:12;-1.10;28.30
7902;DHT22;3996;49.674;10.716;2023-12-04T14:36:38;-1.20;28.20
7902;DHT22;3996;49.674;10.716;2023-12-04T14:39:06;-1.20;28.60
7902;DHT22;3996;49.674;10.716;2023-12-04T14:41:31;-1.20;29.20
7902;DHT22;3996;49.674;10.716;2023-12-04T14:43:57;-1.20;29.80
7902;DHT22;3996;49.674;10.716;2023-12-04T14:46:22;-1.20;30.20
7902;DHT22;3996;49.674;10.716;2023-12-04T14:48:48;-1.20;30.80
7902;DHT22;3996;49.674;10.716;2023-12-04T14:51:13;-1.20;31.70
7902;DHT22;3996;49.674;10.716;2023-12-04T14:53:39;-1.20;31.10
7902;DHT22;3996;49.674;10.716;2023-12-04T14:56:36;-1.20;31.70
7902;DHT22;3996;49.674;10.716;2023-12-04T14:59:02;-1.20;32.50
7902;DHT22;3996;49.674;10.716;2023-12-04T15:01:46;-1.20;33.30
7902;DHT22;3996;49.674;10.716;2023-12-04T15:04:17;-1.30;33.30
7902;DHT22;3996;49.674;10.716;2023-12-04T15:07:01;-1.30;34.70
7902;DHT22;3996;49.674;10.716;2023-12-04T15:09:45;-1.30;34.90
7902;DHT22;3996;49.674;10.716;2023-12-04T15:12:11;-1.30;35.40
7902;DHT22;3996;49.674;10.716;2023-12-04T15:14:36;-1.20;35.90
7902;DHT22;3996;49.674;10.716;2023-12-04T15:17:25;-1.20;35.30
7902;DHT22;3996;49.674;10.716;2023-12-04T15:19:53;-1.20;36.10
7902;DHT22;3996;49.674;10.716;2023-12-04T15:22:24;-1.20;35.60
7902;DHT22;3996;49.674;10.716;2023-12-04T15:24:50;-1.30;36.00
7902;DHT22;3996;49.674;10.716;2023-12-04T15:27:16;-1.30;36.00
7902;DHT22;3996;49.674;10.716;2023-12-04T15:29:42;-1.20;36.70
7902;DHT22;3996;49.674;10.716;2023-12-04T15:32:07;-1.20;36.90
7902;DHT22;3996;49.674;10.716;2023-12-04T15:34:33;-1.20;35.40
7902;DHT22;3996;49.674;10.716;2023-12-04T15:36:58;-1.20;36.20
7902;DHT22;3996;49.674;10.716;2023-12-04T15:39:24;-1.10;36.10
7902;DHT22;3996;49.674;10.716;2023-12-04T15:41:49;-1.20;35.30
7902;DHT22;3996;49.674;10.716;2023-12-04T15:44:15;-1.20;35.80
7902;DHT22;3996;49.674;10.716;2023-12-04T15:46:40;-1.20;36.10